Time;durP1;ratioP1;P1;durP2;ratioP2;P2;SDS_P1;SDS_P2;PMS_P1;PMS_P2;Temp;Humidity;BMP_temperature;BMP_pressure;BME280_temperature;BME280_humidity;BME280_pressure;Samples;Min_cycle;Max_cycle;Signal;HPM_P1;HPM_P2
2023/02/09 00:00:08;;;;;;;;;48.25;40.25;;;;;3.13;52.70;102251.72;4974223;28;46187;-67
2023/02/09 00:02:33;;;;;;;;;38.75;36.25;;;;;3.03;52.18;102248.09;4974496;28;45473;-68
2023/02/09 00:04:59;;;;;;;;;45.25;40.75;;;;;3.07;52.47;102250.78;4970147;28;45213;-67
2023/02/09 00:07:24;;;;;;;;;39.75;38.00;;;;;3.03;52.93;102245.50;4955794;28;45259;-67
2023/02/09 00:09:50;;;;;;;;;52.50;44.25;;;;;3.04;52.66;102250.72;4953743;28;46010;-67
2023/02/09 00:15:00;;;;;;;;;49.75;44.00;;;;;3.01;52.50;102247.19;4966314;28;45369;-67
2023/02/09 00:17:26;;;;;;;;;46.75;40.50;;;;;3.01;52.22;102249.81;4975168;28;45300;-66
2023/02/09 00:19:54;;;;;;;;;44.00;39.75;;;;;2.99;52.98;102244.56;4974126;28;45893;-66
2023/02/09 00:22:20;;;;;;;;;47.50;42.00;;;;;2.98;52.28;102241.94;4969178;28;45499;-68
2023/02/09 00:24:45;;;;;;;;;48.00;40.75;;;;;2.93;53.28;102241.84;4955130;28;45438;-67
2023/02/09 00:27:11;;;;;;;;;46.25;39.50;;;;;2.95;52.92;102237.56;4955893;28;45471;-67
2023/02/09 00:29:36;;;;;;;;;44.50;40.00;;;;;2.93;52.55;102236.66;4956291;28;45315;-67
2023/02/09 00:32:02;;;;;;;;;44.75;41.00;;;;;2.81;53.11;102218.22;4957671;28;45283;-67
2023/02/09 00:34:27;;;;;;;;;48.50;43.00;;;;;2.90;53.18;102236.59;4955684;28;45311;-68
2023/02/09 00:36:52;;;;;;;;;52.50;45.50;;;;;2.88;53.44;102240.88;4954948;28;45319;-67
2023/02/09 00:39:18;;;;;;;;;48.25;43.50;;;;;2.86;53.46;102243.47;4954981;28;45504;-67
2023/02/09 00:44:27;;;;;;;;;48.50;42.50;;;;;2.83;53.47;102232.13;4975458;28;45235;-69
2023/02/09 00:46:52;;;;;;;;;46.50;42.25;;;;;2.81;53.63;102233.81;4980536;28;45510;-67
2023/02/09 00:49:18;;;;;;;;;49.00;41.25;;;;;2.76;54.17;102226.81;4982780;28;45962;-67
2023/02/09 00:51:43;;;;;;;;;49.50;44.25;;;;;2.70;54.50;102213.72;4989825;28;45277;-68
2023/02/09 00:54:12;;;;;;;;;48.25;43.50;;;;;2.74;53.72;102223.31;4974408;28;45363;-69
2023/02/09 00:56:37;;;;;;;;;52.75;44.75;;;;;2.71;53.45;102231.06;4973173;28;45507;-66
2023/02/09 00:59:03;;;;;;;;;49.50;42.75;;;;;2.72;54.35;102231.94;4974122;28;46026;-66
2023/02/09 01:01:28;;;;;;;;;48.75;43.00;;;;;2.59;54.49;102218.69;4972584;28;45861;-67
2023/02/09 01:03:54;;;;;;;;;53.75;44.75;;;;;2.69;53.98;102237.09;4977095;28;45615;-65
2023/02/09 01:06:20;;;;;;;;;53.00;45.00;;;;;2.66;53.85;102242.22;4973480;28;45260;-68
2023/02/09 01:08:45;;;;;;;;;53.00;45.75;;;;;2.69;54.39;102245.75;4974809;28;46033;-67
2023/02/09 01:11:13;;;;;;;;;57.50;49.00;;;;;2.67;54.47;102241.38;4972577;28;45313;-68
2023/02/09 01:13:38;;;;;;;;;56.00;47.25;;;;;2.65;54.90;102237.84;4979786;28;45461;-69
2023/02/09 01:16:09;;;;;;;;;59.25;49.75;;;;;2.61;54.99;102226.53;4974201;28;45155;-68
2023/02/09 01:18:35;;;;;;;;;58.25;50.00;;;;;2.62;54.44;102231.75;4956892;28;45575;-69
2023/02/09 01:21:01;;;;;;;;;58.00;49.25;;;;;2.61;55.13;102236.91;5053707;28;45328;-69
2023/02/09 01:23:26;;;;;;;;;61.75;51.75;;;;;2.39;55.49;102213.13;5013509;28;45374;-68
2023/02/09 01:26:05;;;;;;;;;74.67;59.33;;;;;2.60;55.48;102248.16;5035532;28;45615;-69
2023/02/09 01:28:30;;;;;;;;;71.00;57.33;;;;;2.58;55.88;102242.06;4974658;28;46007;-69
2023/02/09 01:30:56;;;;;;;;;66.00;55.33;;;;;2.57;54.96;102251.56;4975187;28;45400;-70
2023/02/09 01:33:22;;;;;;;;;69.67;57.00;;;;;2.48;55.82;102239.28;4974392;28;45491;-68
2023/02/09 01:35:47;;;;;;;;;77.67;62.67;;;;;2.52;56.46;102253.19;4973673;28;45731;-68
2023/02/09 01:38:13;;;;;;;;;79.00;64.00;;;;;2.49;56.11;102253.13;4973160;28;46329;-70
2023/02/09 01:40:49;;;;;;;;;84.33;66.67;;;;;2.42;55.85;102244.34;4973644;28;45385;-68
2023/02/09 01:43:17;;;;;;;;;84.00;68.67;;;;;2.43;56.32;102243.50;4974545;28;45382;-70
2023/02/09 01:45:56;;;;;;;;;79.67;63.00;;;;;2.43;57.02;102248.69;4974620;28;45615;-69
2023/02/09 01:48:30;;;;;;;;;85.67;68.33;;;;;2.41;57.08;102247.78;4972855;28;46158;-66
2023/02/09 01:51:02;;;;;;;;;86.00;74.00;;;;;2.39;56.82;102252.09;4974184;28;45311;-67
2023/02/09 01:53:28;;;;;;;;;92.33;77.67;;;;;2.30;57.49;102234.56;4972717;28;45311;-69
2023/02/09 01:56:03;;;;;;;;;95.00;85.67;;;;;2.36;56.50;102245.94;4973488;28;45284;-68
2023/02/09 01:58:30;;;;;;;;;90.33;76.33;;;;;2.28;56.77;102238.84;4973046;28;45272;-66
2023/02/09 02:00:55;;;;;;;;;91.67;78.67;;;;;2.33;56.78;102247.63;4975731;28;45223;-67
2023/02/09 02:03:25;;;;;;;;;92.33;82.33;;;;;2.28;57.06;102249.25;4974020;28;45570;-67
2023/02/09 02:06:06;;;;;;;;;91.33;78.00;;;;;2.26;57.49;102234.50;4973761;28;45458;-68
2023/02/09 02:08:40;;;;;;;;;87.67;73.00;;;;;2.28;57.90;102249.25;4974733;28;46106;-67
2023/02/09 02:11:07;;;;;;;;;92.00;76.67;;;;;2.25;57.82;102253.50;4974133;28;45331;-68
2023/02/09 02:13:33;;;;;;;;;90.33;76.67;;;;;2.22;58.27;102253.44;4974323;28;45398;-69
2023/02/09 02:16:16;;;;;;;;;90.67;77.33;;;;;2.21;57.66;102246.50;4974531;28;45485;-66
2023/02/09 02:18:58;;;;;;;;;95.00;81.00;;;;;2.18;57.61;102248.19;4974511;28;46317;-66
2023/02/09 02:21:42;;;;;;;;;92.33;82.33;;;;;2.16;58.09;102248.97;4973789;28;45313;-68
2023/02/09 02:24:28;;;;;;;;;89.33;76.33;;;;;2.12;57.49;102261.03;4977265;28;45283;-68
2023/02/09 02:26:57;;;;;;;;;96.00;84.33;;;;;2.08;58.23;102254.00;4973493;28;45353;-68
2023/02/09 02:30:02;;;;;;;;;91.33;76.67;;;;;2.07;58.28;102252.25;4971595;28;45483;-68
2023/02/09 02:32:46;;;;;;;;;86.67;72.33;;;;;2.04;58.67;102259.97;4973256;28;45357;-70
2023/02/09 02:35:27;;;;;;;;;87.33;72.00;;;;;2.02;58.79;102251.25;4975204;28;45355;-67
2023/02/09 02:38:10;;;;;;;;;95.00;81.33;;;;;1.89;59.18;102234.56;4962147;28;45147;-68
2023/02/09 02:40:54;;;;;;;;;91.67;79.67;;;;;1.98;59.06;102252.03;4978188;28;45518;-70
2023/02/09 02:43:54;;;;;;;;;96.67;85.00;;;;;1.97;59.34;102246.00;4972658;28;45370;-69
2023/02/09 02:46:34;;;;;;;;;94.33;81.00;;;;;1.98;58.77;102247.75;4972659;28;45470;-68
2023/02/09 02:49:06;;;;;;;;;95.67;83.67;;;;;1.96;59.33;102243.34;4973438;28;45371;-69
2023/02/09 02:51:40;;;;;;;;;94.33;82.33;;;;;1.90;59.00;102231.97;4956517;28;46156;-68
2023/02/09 02:54:11;;;;;;;;;102.33;89.33;;;;;1.88;58.90;102220.69;4988575;28;45597;-69
2023/02/09 02:56:50;;;;;;;;;95.67;83.67;;;;;1.94;58.70;102242.44;5074068;28;45363;-68
2023/02/09 02:59:20;;;;;;;;;101.33;93.00;;;;;1.90;58.78;102242.38;4984291;28;45383;-67
2023/02/09 03:02:03;;;;;;;;;98.33;91.00;;;;;1.87;59.36;102246.63;4970661;28;48937;-67
2023/02/09 03:04:31;;;;;;;;;90.33;76.00;;;;;1.88;59.62;102243.19;4988425;28;46133;-68
2023/02/09 03:06:56;;;;;;;;;104.00;95.75;;;;;1.88;59.59;102244.06;4975055;28;45208;-67
2023/02/09 03:09:21;;;;;;;;;98.67;90.33;;;;;1.85;59.72;102240.53;4961315;28;48733;-67
2023/02/09 03:11:50;;;;;;;;;103.33;91.67;;;;;1.80;59.34;102240.41;4968768;28;46210;-67
2023/02/09 03:14:43;;;;;;;;;93.33;85.00;;;;;1.84;59.45;102238.78;4973828;28;45513;-66
2023/02/09 03:17:33;;;;;;;;;98.33;88.67;;;;;1.82;59.89;102228.34;4973951;28;45256;-68
2023/02/09 03:20:06;;;;;;;;;98.67;89.33;;;;;1.83;60.15;102240.47;4974889;28;45520;-67
2023/02/09 03:22:37;;;;;;;;;97.67;84.00;;;;;1.81;59.24;102239.56;4975845;28;46126;-66
2023/02/09 03:25:28;;;;;;;;;97.67;90.33;;;;;1.80;59.39;102227.44;4974162;28;45373;-66
2023/02/09 03:27:56;;;;;;;;;96.00;87.00;;;;;1.79;60.26;102230.88;4976494;28;45613;-69
2023/02/09 03:30:23;;;;;;;;;97.33;85.00;;;;;1.75;59.80;102231.63;4964373;28;45386;-67
2023/02/09 03:32:54;;;;;;;;;99.67;90.00;;;;;1.76;59.73;102236.00;4971279;28;46762;-67
2023/02/09 03:35:21;;;;;;;;;98.00;87.67;;;;;1.74;60.38;102230.78;4976225;28;45282;-70
2023/02/09 03:37:46;;;;;;;;;101.67;92.00;;;;;1.72;60.67;102232.47;4975350;28;45359;-67
2023/02/09 03:40:12;;;;;;;;;105.75;100.75;;;;;1.68;60.69;102224.56;4985966;28;45447;-69
2023/02/09 03:42:37;;;;;;;;;99.00;91.67;;;;;1.66;60.11;102226.25;4979627;28;48038;-67
2023/02/09 03:45:03;;;;;;;;;102.33;93.67;;;;;1.67;60.60;102236.66;4975137;28;45243;-67
2023/02/09 03:47:29;;;;;;;;;102.75;94.25;;;;;1.63;60.56;102231.34;4974659;28;45222;-67
2023/02/09 03:49:56;;;;;;;;;103.00;95.50;;;;;1.56;59.91;102232.91;4977838;28;45338;-67
2023/02/09 03:52:22;;;;;;;;;96.00;88.00;;;;;1.48;60.47;102224.97;4975795;28;46227;-67
2023/02/09 03:54:47;;;;;;;;;100.50;93.75;;;;;1.45;59.86;102232.69;4974128;28;45642;-66
2023/02/09 03:57:12;;;;;;;;;102.33;92.00;;;;;1.41;60.62;102221.34;4974962;28;45352;-68
2023/02/09 03:59:38;;;;;;;;;106.33;95.33;;;;;1.36;60.90;102222.06;4974931;28;45330;-67
2023/02/09 04:02:06;;;;;;;;;108.33;95.00;;;;;1.31;60.28;102217.66;4975445;28;46336;-67
2023/02/09 04:04:32;;;;;;;;;100.33;86.00;;;;;1.36;60.82;102235.91;4972613;28;45460;-67
2023/02/09 04:06:58;;;;;;;;;103.00;91.00;;;;;1.35;60.80;102236.75;4974806;28;45220;-67
2023/02/09 04:09:24;;;;;;;;;97.00;83.33;;;;;1.34;60.97;102239.31;4974955;28;45479;-67
2023/02/09 04:11:49;;;;;;;;;94.75;85.75;;;;;1.32;60.25;102241.84;4976077;28;45192;-67
2023/02/09 04:14:16;;;;;;;;;98.33;86.67;;;;;1.31;60.76;102246.19;4974918;28;45293;-67
2023/02/09 04:16:41;;;;;;;;;90.00;75.67;;;;;1.20;60.37;102242.44;4973876;28;45472;-68
2023/02/09 04:19:08;;;;;;;;;95.33;84.67;;;;;1.14;60.64;102232.78;4974656;28;45645;-66
2023/02/09 04:21:34;;;;;;;;;99.33;84.00;;;;;1.24;60.45;102257.22;4973310;28;46903;-68
2023/02/09 04:23:59;;;;;;;;;93.00;78.33;;;;;1.20;60.79;102247.63;4974665;28;45543;-69
2023/02/09 04:26:25;;;;;;;;;90.67;73.67;;;;;1.14;60.53;102240.56;4975330;28;54883;-68
2023/02/09 04:28:50;;;;;;;;;95.33;78.00;;;;;1.15;60.23;102244.91;4977771;28;45436;-69
2023/02/09 04:31:15;;;;;;;;;89.33;75.00;;;;;1.15;60.60;102246.63;4974445;28;47217;-68
2023/02/09 04:33:41;;;;;;;;;96.33;81.00;;;;;1.10;60.92;102237.84;4974418;28;45287;-69
2023/02/09 04:36:07;;;;;;;;;98.33;84.00;;;;;1.14;60.75;102252.66;4975845;28;46227;-69
2023/02/09 04:38:32;;;;;;;;;92.67;80.00;;;;;1.15;60.90;102241.44;4958301;28;45454;-69
2023/02/09 04:40:59;;;;;;;;;94.00;78.33;;;;;1.14;61.18;102240.56;4957149;28;46033;-70
2023/02/09 04:43:25;;;;;;;;;96.67;85.00;;;;;1.13;61.06;102235.34;4972920;28;45237;-69
2023/02/09 04:45:51;;;;;;;;;93.67;77.67;;;;;1.12;60.94;102224.09;4974414;28;45440;-69
2023/02/09 04:48:18;;;;;;;;;97.67;85.00;;;;;1.15;61.67;102218.13;4974674;28;45513;-68
2023/02/09 04:50:44;;;;;;;;;99.33;86.67;;;;;1.16;61.38;102225.91;4966589;28;46146;-69
2023/02/09 04:53:10;;;;;;;;;94.67;84.00;;;;;1.20;61.35;102223.41;4989174;28;45671;-69
2023/02/09 04:55:37;;;;;;;;;93.67;81.00;;;;;1.20;61.92;102218.22;5040151;28;45395;-69
2023/02/09 05:00:46;;;;;;;;;87.33;68.67;;;;;1.22;61.69;102209.66;4981596;28;45342;-71
2023/02/09 05:03:12;;;;;;;;;82.00;67.00;;;;;1.19;62.02;102199.22;4973326;28;45277;-68
2023/02/09 05:05:39;;;;;;;;;80.67;65.33;;;;;1.27;61.71;102204.56;4973775;28;50626;-67
2023/02/09 05:08:05;;;;;;;;;74.00;58.67;;;;;1.24;61.41;102194.13;4972982;28;45192;-67
2023/02/09 05:10:30;;;;;;;;;70.00;57.33;;;;;1.27;60.53;102195.09;4971568;28;45473;-70
2023/02/09 05:12:56;;;;;;;;;72.00;59.33;;;;;1.27;60.20;102197.69;4954228;28;45384;-69
2023/02/09 05:15:21;;;;;;;;;71.67;59.00;;;;;1.26;60.29;102221.84;4954294;28;45238;-67
2023/02/09 05:17:46;;;;;;;;;78.67;61.00;;;;;1.23;59.97;102236.44;4954752;28;45280;-67
2023/02/09 05:20:12;;;;;;;;;72.00;59.33;;;;;1.17;59.81;102242.38;4973164;28;50171;-69
2023/02/09 05:22:37;;;;;;;;;64.67;53.33;;;;;1.15;59.50;102254.41;4973600;28;54017;-67
2023/02/09 05:25:02;;;;;;;;;70.67;56.67;;;;;1.12;60.10;102262.09;4977057;28;45385;-68
2023/02/09 05:27:28;;;;;;;;;68.33;57.00;;;;;1.11;59.72;102275.91;4973457;28;45525;-66
2023/02/09 05:29:53;;;;;;;;;67.33;55.33;;;;;1.04;59.37;102272.25;4973574;28;45471;-68
2023/02/09 05:32:18;;;;;;;;;70.00;57.33;;;;;1.10;59.10;102284.50;4973870;28;45338;-71
2023/02/09 05:34:44;;;;;;;;;65.67;55.33;;;;;1.09;59.35;102290.53;4973810;28;45315;-67
2023/02/09 05:37:09;;;;;;;;;66.00;55.00;;;;;0.99;59.31;102274.72;4973707;28;45528;-67
2023/02/09 05:39:35;;;;;;;;;82.67;65.33;;;;;1.10;59.94;102275.00;4971960;28;48375;-68
2023/02/09 05:42:15;;;;;;;;;64.33;55.00;;;;;1.12;59.90;102275.06;4973565;28;45268;-67
2023/02/09 05:44:48;;;;;;;;;68.33;55.67;;;;;1.11;59.99;102276.75;4972750;28;45413;-68
2023/02/09 05:47:17;;;;;;;;;72.33;59.00;;;;;1.12;60.09;102265.56;4973791;28;45316;-69
2023/02/09 05:49:42;;;;;;;;;66.33;56.33;;;;;1.18;59.96;102270.03;4973290;28;45652;-68
2023/02/09 05:52:09;;;;;;;;;71.33;57.67;;;;;1.19;59.67;102274.38;4973878;28;45415;-67
2023/02/09 05:54:34;;;;;;;;;66.33;55.67;;;;;1.15;60.04;102257.00;4973670;28;45450;-68
2023/02/09 05:57:00;;;;;;;;;70.00;58.67;;;;;1.15;60.27;102268.22;4973504;28;45311;-68
2023/02/09 05:59:26;;;;;;;;;71.67;58.33;;;;;1.21;60.11;102280.50;4973296;28;45524;-69
2023/02/09 06:01:51;;;;;;;;;69.33;58.00;;;;;1.22;60.02;102277.06;4980982;28;45350;-66
2023/02/09 06:04:16;;;;;;;;;68.00;57.67;;;;;1.22;59.29;102265.78;4989130;28;45853;-67
2023/02/09 06:06:42;;;;;;;;;70.67;57.67;;;;;1.24;60.25;102270.19;4973060;28;45366;-68
2023/02/09 06:09:07;;;;;;;;;78.33;59.00;;;;;1.25;60.29;102274.53;4972372;28;53849;-70
2023/02/09 06:11:33;;;;;;;;;73.67;60.67;;;;;1.27;60.15;102269.38;4974743;28;45325;-70
2023/02/09 06:13:58;;;;;;;;;83.33;65.33;;;;;1.28;60.40;102276.31;4972744;28;45399;-71
2023/02/09 06:16:24;;;;;;;;;74.67;60.67;;;;;1.30;60.82;102283.31;4973795;28;45719;-71
2023/02/09 06:18:49;;;;;;;;;83.00;66.00;;;;;1.33;61.05;102284.22;5060262;28;46037;-68
2023/02/09 06:21:14;;;;;;;;;80.67;65.67;;;;;1.36;61.48;102279.13;4980729;27;45434;-69
2023/02/09 06:23:40;;;;;;;;;83.67;65.33;;;;;1.35;60.80;102282.56;4988035;28;48426;-68
2023/02/09 06:26:10;;;;;;;;;79.67;65.00;;;;;1.39;60.88;102281.78;4953928;28;45389;-67
2023/02/09 06:28:36;;;;;;;;;74.33;61.00;;;;;1.38;61.07;102280.91;4966408;28;46178;-67
2023/02/09 06:31:02;;;;;;;;;78.33;61.33;;;;;1.37;60.65;102296.44;4972692;28;45252;-69
2023/02/09 06:33:28;;;;;;;;;79.00;63.67;;;;;1.35;60.55;102303.28;4971797;28;45354;-68
2023/02/09 06:35:53;;;;;;;;;79.67;64.00;;;;;1.32;60.42;102296.31;4968717;28;45418;-68
2023/02/09 06:38:18;;;;;;;;;72.67;60.00;;;;;1.29;59.94;102294.53;4953577;28;45391;-67
2023/02/09 06:40:45;;;;;;;;;70.33;56.67;;;;;1.25;59.53;102303.06;4969889;28;45295;-68
2023/02/09 06:43:10;;;;;;;;;71.00;59.67;;;;;1.22;59.57;102296.91;4989556;28;45352;-67
2023/02/09 06:45:39;;;;;;;;;74.00;61.00;;;;;1.16;60.12;102305.41;4973487;28;45552;-64
2023/02/09 06:48:06;;;;;;;;;71.33;58.67;;;;;1.17;60.27;102312.34;4991174;28;47219;-66
2023/02/09 06:50:32;;;;;;;;;76.00;60.00;;;;;1.18;60.01;102319.28;4975977;28;45272;-65
2023/02/09 06:52:58;;;;;;;;;73.67;60.00;;;;;1.13;59.80;102307.91;4990266;28;45337;-68
2023/02/09 06:55:23;;;;;;;;;74.00;61.00;;;;;1.14;59.99;102318.31;4963029;28;45587;-65
2023/02/09 06:57:48;;;;;;;;;81.67;65.67;;;;;1.12;59.62;102330.34;4977727;28;46232;-68
2023/02/09 07:00:15;;;;;;;;;72.00;59.00;;;;;1.11;59.59;102319.97;4971490;28;48120;-67
2023/02/09 07:02:42;;;;;;;;;80.67;64.67;;;;;1.07;60.16;102320.72;4961694;28;45278;-72
2023/02/09 07:05:07;;;;;;;;;73.33;60.00;;;;;1.05;60.18;102325.84;4980396;28;45318;-69
2023/02/09 07:07:33;;;;;;;;;75.00;61.33;;;;;1.04;59.54;102329.28;4975359;27;48043;-68
2023/02/09 07:09:58;;;;;;;;;74.00;61.00;;;;;1.06;59.63;102327.59;4974610;28;45435;-68
2023/02/09 07:12:23;;;;;;;;;71.33;56.33;;;;;1.05;60.19;102320.66;4974151;28;45459;-69
2023/02/09 07:14:48;;;;;;;;;66.00;55.33;;;;;1.04;60.12;102325.78;4975039;28;45589;-67
2023/02/09 07:17:14;;;;;;;;;65.00;55.33;;;;;1.05;60.07;102330.13;4974490;28;54475;-70
2023/02/09 07:19:39;;;;;;;;;64.75;54.00;;;;;1.06;59.97;102324.13;4974871;28;45489;-68
2023/02/09 07:22:05;;;;;;;;;65.25;54.50;;;;;1.02;59.40;102318.84;4974871;28;45799;-71
2023/02/09 07:24:30;;;;;;;;;71.00;57.00;;;;;1.04;60.33;102313.72;4975170;28;45407;-70
2023/02/09 07:26:55;;;;;;;;;68.00;57.33;;;;;1.07;60.32;102323.31;4973186;28;45396;-70
2023/02/09 07:29:21;;;;;;;;;73.00;59.33;;;;;1.06;59.86;102322.41;4972380;28;45574;-70
2023/02/09 07:31:47;;;;;;;;;71.67;58.67;;;;;1.04;59.87;102324.09;4974957;28;45752;-69
2023/02/09 07:34:13;;;;;;;;;66.00;54.50;;;;;1.09;59.80;102335.47;4975351;28;45458;-70
2023/02/09 07:36:38;;;;;;;;;66.75;55.75;;;;;1.11;59.88;102340.69;4974886;28;47077;-66
2023/02/09 07:39:03;;;;;;;;;63.75;54.50;;;;;1.12;59.68;102332.94;4973519;28;45528;-68
2023/02/09 07:41:29;;;;;;;;;63.00;54.00;;;;;1.16;59.79;102334.78;4975038;28;47444;-69
2023/02/09 07:43:55;;;;;;;;;65.50;54.25;;;;;1.19;59.65;102338.28;4976707;28;45251;-68
2023/02/09 07:46:21;;;;;;;;;71.67;56.67;;;;;1.21;59.69;102336.63;4975346;28;45294;-69
2023/02/09 07:48:47;;;;;;;;;66.50;56.00;;;;;1.24;59.34;102342.78;4974120;28;45359;-70
2023/02/09 07:51:24;;;;;;;;;65.33;54.67;;;;;1.27;59.67;102347.16;4975681;28;45431;-70
2023/02/09 07:53:54;;;;;;;;;64.50;52.00;;;;;1.21;59.34;102350.47;4981438;28;44793;-70
2023/02/09 07:56:20;;;;;;;;;64.75;53.75;;;;;1.21;59.04;102347.88;4978512;28;45409;-69
2023/02/09 07:58:46;;;;;;;;;66.00;56.00;;;;;1.17;58.75;102346.06;4975092;28;45229;-70
2023/02/09 08:01:13;;;;;;;;;62.67;53.33;;;;;1.30;59.18;102376.66;4973571;28;45398;-70
2023/02/09 08:03:41;;;;;;;;;70.75;56.75;;;;;1.35;59.53;102370.72;4975357;28;45601;-70
2023/02/09 08:06:17;;;;;;;;;63.25;54.25;;;;;1.36;59.07;102390.63;4975138;28;45539;-69
2023/02/09 08:08:44;;;;;;;;;67.00;55.75;;;;;1.39;59.68;102388.97;4973709;28;45507;-68
2023/02/09 08:11:11;;;;;;;;;68.67;57.67;;;;;1.40;59.50;102395.91;4975687;28;45272;-68
2023/02/09 08:13:39;;;;;;;;;67.00;55.67;;;;;1.46;59.72;102392.63;4975647;28;45314;-68
2023/02/09 08:16:08;;;;;;;;;69.67;59.00;;;;;1.52;59.80;102400.56;4974940;28;46203;-69
2023/02/09 08:18:41;;;;;;;;;67.33;56.67;;;;;1.53;59.08;102401.44;4975554;28;45291;-67
2023/02/09 08:21:10;;;;;;;;;66.33;56.00;;;;;1.64;59.15;102418.19;4974612;28;45326;-67
2023/02/09 08:23:36;;;;;;;;;64.67;54.67;;;;;1.66;59.44;102413.91;4974530;28;45572;-69
2023/02/09 08:26:08;;;;;;;;;73.67;57.33;;;;;1.70;59.24;102426.13;4974910;28;45468;-69
2023/02/09 08:28:35;;;;;;;;;74.00;57.33;;;;;1.75;60.27;102424.53;4974620;28;45189;-68
2023/02/09 08:31:02;;;;;;;;;71.67;58.33;;;;;1.82;59.85;102428.16;4974383;28;45430;-69
2023/02/09 08:33:28;;;;;;;;;69.67;57.33;;;;;1.74;59.07;102406.31;4975507;28;45479;-68
2023/02/09 08:35:53;;;;;;;;;70.67;58.33;;;;;1.90;59.15;102433.56;4974178;28;46367;-69
2023/02/09 08:38:19;;;;;;;;;73.00;60.33;;;;;1.93;59.63;102437.94;4974326;28;45410;-68
2023/02/09 08:40:45;;;;;;;;;80.33;61.67;;;;;1.96;59.16;102432.81;4974748;28;45362;-68
2023/02/09 08:43:12;;;;;;;;;74.00;61.33;;;;;1.97;59.05;102439.75;4975487;28;45571;-69
2023/02/09 08:45:40;;;;;;;;;76.00;62.00;;;;;2.01;58.57;102446.78;4974894;28;46245;-69
2023/02/09 08:48:08;;;;;;;;;77.33;62.33;;;;;2.09;59.22;102447.00;4974856;28;45303;-68
2023/02/09 08:50:34;;;;;;;;;72.67;60.00;;;;;2.16;59.52;102435.91;4974521;28;45268;-69
2023/02/09 08:53:01;;;;;;;;;72.33;60.33;;;;;2.23;59.34;102442.16;4975685;28;45577;-69
2023/02/09 08:55:28;;;;;;;;;79.33;60.00;;;;;2.29;58.68;102444.91;4974807;28;45737;-69
2023/02/09 08:57:54;;;;;;;;;75.00;61.00;;;;;2.31;58.67;102445.81;4974590;28;45348;-71
2023/02/09 09:00:19;;;;;;;;;71.00;56.33;;;;;2.37;59.30;102445.06;4974947;28;45296;-70
2023/02/09 09:02:45;;;;;;;;;76.67;61.67;;;;;2.42;59.36;102451.25;4974692;28;45273;-71
2023/02/09 09:05:10;;;;;;;;;82.00;65.33;;;;;2.46;58.27;102451.38;4973861;28;52488;-69
2023/02/09 09:07:35;;;;;;;;;73.00;59.00;;;;;2.52;59.22;102462.75;4974632;28;45338;-68
2023/02/09 09:10:01;;;;;;;;;80.33;62.67;;;;;2.47;58.67;102455.72;4974247;28;45169;-69
2023/02/09 09:12:29;;;;;;;;;75.33;60.00;;;;;2.56;58.69;102462.84;4973832;28;45347;-69
2023/02/09 09:14:54;;;;;;;;;78.67;63.00;;;;;2.67;57.71;102477.84;4972433;28;45545;-69
2023/02/09 09:17:20;;;;;;;;;83.33;68.67;;;;;2.69;58.70;102465.75;4974678;28;45367;-67
2023/02/09 09:19:45;;;;;;;;;76.33;62.00;;;;;2.73;58.01;102465.84;4974904;28;45289;-67
2023/02/09 09:22:10;;;;;;;;;78.67;62.67;;;;;2.82;57.99;102480.78;4974937;28;45651;-68
2023/02/09 09:24:39;;;;;;;;;76.00;63.00;;;;;2.77;57.96;102453.81;4972852;28;45711;-67
2023/02/09 09:27:06;;;;;;;;;78.00;63.00;;;;;2.82;57.72;102464.28;4973964;28;45301;-67
2023/02/09 09:29:33;;;;;;;;;80.00;62.00;;;;;2.91;57.43;102469.69;4974920;28;45364;-68
2023/02/09 09:31:59;;;;;;;;;77.67;61.00;;;;;2.97;58.53;102472.44;4976894;28;45476;-69
2023/02/09 09:34:24;;;;;;;;;76.00;62.00;;;;;2.98;57.37;102471.59;4973184;28;48044;-68
2023/02/09 09:36:50;;;;;;;;;78.00;62.00;;;;;2.99;57.33;102473.34;4974680;28;45702;-68
2023/02/09 09:39:16;;;;;;;;;78.00;63.00;;;;;3.02;57.22;102463.00;4979190;28;45232;-69
2023/02/09 09:41:46;;;;;;;;;79.67;62.33;;;;;3.15;57.20;102465.88;4980021;28;45350;-69
2023/02/09 09:44:19;;;;;;;;;77.67;64.00;;;;;3.17;57.56;102458.97;4975962;28;45485;-67
2023/02/09 09:46:49;;;;;;;;;81.00;64.00;;;;;3.25;57.74;102460.03;4972241;28;45479;-67
2023/02/09 09:49:30;;;;;;;;;81.00;66.33;;;;;3.33;57.96;102466.28;4973227;28;45449;-69
2023/02/09 09:52:04;;;;;;;;;76.00;62.00;;;;;3.35;57.76;102466.28;4973533;28;45333;-68
2023/02/09 09:54:34;;;;;;;;;83.67;70.00;;;;;3.46;57.88;102463.91;4974063;28;45552;-69
2023/02/09 09:57:00;;;;;;;;;83.00;66.00;;;;;3.41;56.60;102444.75;4974939;28;45361;-69
2023/02/09 09:59:31;;;;;;;;;76.33;61.67;;;;;3.56;56.54;102465.84;4973578;28;45313;-69
2023/02/09 10:02:02;;;;;;;;;80.67;62.33;;;;;3.54;56.30;102451.03;4973490;28;45521;-70
2023/02/09 10:04:28;;;;;;;;;79.33;66.67;;;;;3.62;56.44;102458.16;4975219;28;46533;-67
2023/02/09 10:07:08;;;;;;;;;79.33;63.67;;;;;3.70;56.21;102460.03;4973304;28;45458;-68
2023/02/09 10:09:42;;;;;;;;;84.67;66.33;;;;;3.72;56.55;102456.63;4973695;28;45308;-69
2023/02/09 10:12:34;;;;;;;;;78.33;63.33;;;;;3.75;56.22;102447.97;4974041;27;45464;-69
2023/02/09 10:15:16;;;;;;;;;83.67;71.00;;;;;3.89;56.17;102462.13;4972827;28;46484;-69
2023/02/09 10:17:42;;;;;;;;;83.67;69.00;;;;;3.94;56.52;102452.66;4973604;28;45255;-68
2023/02/09 10:20:08;;;;;;;;;81.67;70.00;;;;;4.01;56.58;102453.66;4973517;28;45276;-70
2023/02/09 10:22:34;;;;;;;;;79.67;66.00;;;;;4.09;55.73;102470.28;4972714;28;45253;-68
2023/02/09 10:25:01;;;;;;;;;81.33;68.67;;;;;4.09;56.02;102466.78;4972613;28;47298;-70
2023/02/09 10:27:29;;;;;;;;;80.67;68.00;;;;;4.16;55.25;102476.47;4973063;28;45327;-70
2023/02/09 10:30:17;;;;;;;;;82.67;70.00;;;;;4.17;55.23;102472.16;4973408;28;45367;-68
2023/02/09 10:32:43;;;;;;;;;81.67;69.00;;;;;4.24;55.48;102474.91;4972023;28;45266;-70
2023/02/09 10:35:27;;;;;;;;;81.33;68.33;;;;;4.30;55.09;102470.63;4973191;27;47657;-70
2023/02/09 10:38:01;;;;;;;;;82.67;73.33;;;;;4.37;55.50;102464.66;4972489;28;45208;-70
2023/02/09 10:40:39;;;;;;;;;87.00;80.00;;;;;4.26;55.71;102432.38;4973447;28;45303;-69
2023/02/09 10:43:19;;;;;;;;;87.00;77.33;;;;;4.48;55.19;102455.28;4977465;28;45221;-69
2023/02/09 10:45:50;;;;;;;;;84.00;79.67;;;;;4.53;55.25;102451.03;4971316;28;46918;-68
2023/02/09 10:48:20;;;;;;;;;85.00;75.00;;;;;4.63;55.14;102466.81;4972886;28;45170;-69
2023/02/09 10:50:49;;;;;;;;;81.33;67.33;;;;;4.71;54.74;102459.97;4974214;27;45316;-68
2023/02/09 10:53:22;;;;;;;;;88.00;81.00;;;;;4.77;54.60;102460.06;4972743;28;45257;-68
2023/02/09 10:55:48;;;;;;;;;82.67;74.00;;;;;4.80;54.45;102462.72;4972104;28;46315;-68
2023/02/09 10:58:26;;;;;;;;;81.67;71.33;;;;;4.89;54.35;102461.09;4971948;28;45271;-69
2023/02/09 11:01:17;;;;;;;;;91.33;87.33;;;;;4.94;54.59;102456.81;4971794;28;45309;-68
2023/02/09 11:04:05;;;;;;;;;85.33;84.00;;;;;4.98;54.13;102458.59;4972096;27;45342;-70
2023/02/09 11:06:43;;;;;;;;;85.33;77.00;;;;;5.05;53.74;102443.91;4971749;28;45424;-68
2023/02/09 11:09:16;;;;;;;;;79.33;70.00;;;;;5.09;53.54;102446.56;4971176;28;45924;-69
2023/02/09 11:11:43;;;;;;;;;78.67;68.00;;;;;5.10;53.56;102448.31;4972672;28;45311;-68
2023/02/09 11:14:18;;;;;;;;;76.00;67.67;;;;;5.12;53.23;102443.13;4972485;28;45308;-70
2023/02/09 11:16:54;;;;;;;;;80.67;71.00;;;;;5.18;53.42;102442.31;4971883;28;45393;-70
2023/02/09 11:19:24;;;;;;;;;75.33;64.33;;;;;5.25;52.72;102444.16;4971660;28;45376;-69
2023/02/09 11:22:12;;;;;;;;;76.33;61.33;;;;;5.28;52.79;102444.19;4971926;27;45415;-69
2023/02/09 11:24:48;;;;;;;;;79.00;66.33;;;;;5.31;52.92;102443.34;4979320;28;45484;-69
2023/02/09 11:27:51;;;;;;;;;75.67;64.67;;;;;5.38;53.28;102438.25;4975283;28;46830;-69
2023/02/09 11:30:53;;;;;;;;;74.67;66.00;;;;;5.48;53.00;102431.38;4973522;28;45237;-68
2023/02/09 11:33:32;;;;;;;;;79.67;69.00;;;;;5.57;52.50;102435.81;4974894;28;45372;-69